METAR Data
IDs: Format: Raw Decoded Include TAF

Data at: 1743 UTC 21 Sep 2018

KCLL 211653Z 16009G17KT 10SM FEW024 30/25 A2997 RMK AO2 SLP143 T03000250
KCLL 211553Z 17012KT 10SM SCT019 SCT024 29/26 A2997 RMK AO2 SLP143 T02890256
KCLL 211453Z 16010G19KT 10SM FEW010 SCT014 28/26 A2997 RMK AO2 SLP142 T02780256 51006
KCLL 211411Z 14009KT 10SM BKN007 27/27 A2996 RMK AO2 CIG 006V009 T02670267
KCLL 211353Z 13009KT 10SM SCT007 26/26 A2996 RMK AO2 SLP141 T02610261
KCLL 211316Z 12007KT 9SM FEW007 SCT018 26/26 A2995 RMK AO2 T02560256
KCLL 211253Z 12006KT 9SM FEW008 BKN017 26/26 A2996 RMK AO2 SLP139 T02560256
KCLL 211153Z AUTO 09004KT 10SM FEW009 BKN015 25/25 A2995 RMK AO2 SLP136 60002 70033 T02500250 10256 20244 53005
KCLL 211125Z AUTO 11004KT 10SM FEW008 BKN011 26/26 A2994 RMK AO2 T02560256
KCLL 211113Z AUTO 10003KT 10SM FEW008 SCT013 26/26 A2994 RMK AO2 T02560256
KCLL 211053Z AUTO 12004KT 10SM FEW100 25/25 A2994 RMK AO2 RAE13B37E53 SLP132 P0001 T02500250
KCLL 210953Z AUTO 13004KT 9SM -RA FEW110 25/25 A2994 RMK AO2 RAB12 SLP132 P0001 T02500250
KCLL 210853Z AUTO 14004KT 10SM CLR 25/25 A2993 RMK AO2 RAB15E38 SLP131 P0000 60000 T02500250 56007
KCLL 210753Z AUTO 15005KT 10SM FEW090 25/25 A2993 RMK AO2 SLP129 T02500250
KCLL 210653Z AUTO 14006KT 10SM CLR 25/25 A2994 RMK AO2 RAB13E35 SLP133 P0000 T02500250
KCLL 210553Z AUTO 14005KT 10SM CLR 24/24 A2995 RMK AO2 SLP137 60025 T02440244 10256 20228 403220228 58001
KCLL 210453Z AUTO 14004KT 10SM CLR 24/24 A2997 RMK AO2 RAB25E34 SLP141 P0000 T02440239
KCLL 210353Z AUTO 11003KT 10SM FEW100 24/24 A2996 RMK AO2 RAB14E34 SLP141 P0000 T02440239
KCLL 210333Z AUTO 11004KT 10SM -RA SCT024 24/24 A2996 RMK AO2 RAB14 P0000 T02440239
KCLL 210324Z AUTO 10005KT 10SM -RA BKN024 24/24 A2996 RMK AO2 RAB14 P0000 T02440239
KCLL 210253Z AUTO 11004KT 10SM FEW024 24/24 A2995 RMK AO2 RAB07E23 SLP139 P0000 60025 T02390239 53004
KCLL 210153Z 00000KT 10SM CLR 24/23 A2994 RMK AO2 RAE43 SLP133 P0002 T02390233
KCLL 210053Z 00000KT 10SM -RA BKN100 23/23 A2993 RMK AO2 PK WND 18026/2355 TSE30 SLP131 P0023 T02330233
KCLL 210045Z 00000KT 10SM -RA FEW080 BKN100 23/23 A2993 RMK AO2 PK WND 18026/2355 LTG DSNT N TSE30 P0023 T02330233
KCLL 210036Z 00000KT 10SM VCTS -RA SCT090 BKN110 23/23 A2993 RMK AO2 PK WND 18026/2355 LTG DSNT N TSE30 P0022 T02330228
KCLL 210015Z 00000KT 5SM TSRA BR FEW021 BKN041 OVC090 23/23 A2995 RMK AO2 PK WND 18026/2355 LTG DSNT W AND NW P0019 T02330228
KCLL 202359Z 18011G31KT 2 1/2SM +TSRA BR SCT021 BKN034 OVC110 24/23 A2995 RMK AO2 PK WND 18026/2355 VIS 1 1/2V5 LTG DSNT ALQDS PRESRR P0011 T02390233
KCLL 202353Z 19018G31KT 7SM -TSRA FEW017 SCT055 BKN070 26/23 A2994 RMK AO2 PK WND 20031/2351 LTG DSNT ALQDS RAB50 TSB46 PRESRR SLP134 P0001 60006 T02610233 10322 20244 53010
KCLL 202324Z 12010KT 10SM VCTS CLR 28/22 A2990 RMK AO2 LTG DSNT SE-W T02780217
KCLL 202253Z 10007KT 10SM CLR 29/21 A2990 RMK AO2 LTG DSNT S-W SLP122 T02890211
KCLL 202153Z 06007KT 10SM FEW038 29/24 A2991 RMK AO2 LTG DSNT E SLP124 T02890244
KCLL 202102Z 36004KT 10SM CLR 27/23 A2990 RMK AO2 LTG DSNT N-SE T02670233
KCLL 202053Z 35003KT 10SM VCTS CLR 26/23 A2991 RMK AO2 LTG DSNT N-E RAB1957E38 TSE33 SLP122 P0005 60005 T02560228 56019
KCLL 202039Z 24007KT 10SM VCTS FEW070 FEW090 SCT110 25/23 A2991 RMK AO2 LTG DSNT N AND NE RAB1957E38 TSE33 P0005 T02500233
KCLL 201953Z 12013G19KT 10SM TS SCT039 31/23 A2993 RMK AO2 LTG DSNT ALQDS TSB47 SLP129 T03060233
KCLL 201935Z 16008KT 10SM VCTS CLR 31/23 A2992 RMK AO2 LTG DSNT ALQDS T03060233
KCLL 201853Z 14009KT 10SM FEW034 FEW055 31/23 A2993 RMK AO2 LTG DSNT SW AND W SLP129 T03110233
KCLL 201753Z 15012KT 10SM SCT026 31/24 A2996 RMK AO2 SLP140 T03110244 10311 20239 58007
KCLL 201653Z 15010KT 10SM FEW021 29/24 A2999 RMK AO2 SLP149 T02940244
KCLL 201553Z 17009KT 10SM FEW020 SCT030 SCT037 29/24 A2999 RMK AO2 SLP149 T02940244
KCLL 201453Z 16008KT 10SM SCT016 28/25 A2998 RMK AO2 SLP147 T02830250 53012
KCLL 201353Z 16006KT 10SM CLR 26/24 A2997 RMK AO2 SLP143 T02560244
KCLL 201253Z 17004KT 10SM CLR 24/24 A2996 RMK AO2 SLP140 T02390239
KCLL 201153Z AUTO 11004KT 10SM CLR 24/24 A2995 RMK AO2 SLP135 T02390239 10256 20233 53004
KCLL 201053Z AUTO 10003KT 10SM CLR 23/23 A2994 RMK AO2 SLP131 T02330233
KCLL 200953Z AUTO 17004KT 10SM CLR 24/23 A2993 RMK AO2 SLP131 T02390233
KCLL 200853Z AUTO 17004KT 10SM CLR 24/23 A2994 RMK AO2 SLP132 T02390233 58009
KCLL 200753Z 11004KT 10SM CLR 24/24 A2995 RMK AO2 SLP137 T02440239
KCLL 200653Z 16004KT 10SM CLR 25/24 A2995 RMK AO2 SLP137 T02500239
KCLL 200553Z 18006KT 10SM CLR 26/24 A2996 RMK AO2 SLP141 T02560239 10322 20256 403440233 51015